createdAt,value
2023-05-04T00:02:17.081Z,76.72
2023-05-04T00:04:46.355Z,76.60
2023-05-04T00:07:16.635Z,75.90
2023-05-04T00:09:44.531Z,75.82
2023-05-04T00:12:12.346Z,75.97
2023-05-04T00:14:40.172Z,75.08
2023-05-04T00:17:08.150Z,75.79
2023-05-04T00:19:37.264Z,75.50
2023-05-04T00:22:06.469Z,75.83
2023-05-04T00:24:34.395Z,74.47
2023-05-04T00:27:02.295Z,74.53
2023-05-04T00:29:32.917Z,74.64
2023-05-04T00:32:01.568Z,75.49
2023-05-04T00:34:30.649Z,75.34
2023-05-04T00:36:59.175Z,75.82
2023-05-04T00:39:28.434Z,75.97
2023-05-04T00:41:56.586Z,75.57
2023-05-04T00:44:24.529Z,76.22
2023-05-04T00:46:53.514Z,76.35
2023-05-04T00:49:25.177Z,76.51
2023-05-04T00:51:55.684Z,76.81
2023-05-04T00:54:24.462Z,77.52
2023-05-04T00:56:54.538Z,77.86
2023-05-04T00:59:22.429Z,78.38
2023-05-04T01:01:53.336Z,78.49
2023-05-04T01:04:21.640Z,77.41
2023-05-04T01:06:53.834Z,77.05
2023-05-04T01:09:31.090Z,76.14
2023-05-04T01:12:07.140Z,74.92
2023-05-04T01:14:35.594Z,74.27
2023-05-04T01:17:06.165Z,73.80
2023-05-04T01:19:36.547Z,73.21
2023-05-04T01:22:07.106Z,72.81
2023-05-04T01:24:35.039Z,72.70
2023-05-04T01:27:06.645Z,72.44
2023-05-04T01:29:40.606Z,73.52
2023-05-04T01:32:12.717Z,72.86
2023-05-04T01:34:42.201Z,72.62
2023-05-04T01:37:11.696Z,73.05
2023-05-04T01:39:39.731Z,73.40
2023-05-04T01:42:08.244Z,74.87
2023-05-04T01:44:36.082Z,74.34
2023-05-04T01:47:06.095Z,75.81
2023-05-04T01:49:33.933Z,75.57
2023-05-04T01:52:01.813Z,74.75
2023-05-04T01:54:31.014Z,75.68
2023-05-04T01:56:58.877Z,76.70
2023-05-04T01:59:30.305Z,77.18
2023-05-04T02:01:58.150Z,77.97
2023-05-04T02:04:27.275Z,76.94
2023-05-04T02:06:55.127Z,76.02
2023-05-04T02:09:23.017Z,77.50
2023-05-04T02:11:52.430Z,79.44
2023-05-04T02:14:20.897Z,79.27
2023-05-04T02:16:48.836Z,80.02
2023-05-04T02:19:16.758Z,78.61
2023-05-04T02:21:44.691Z,77.35
2023-05-04T02:24:12.759Z,78.77
2023-05-04T02:26:40.599Z,79.28
2023-05-04T02:29:09.720Z,78.05
2023-05-04T02:31:37.776Z,77.09
2023-05-04T02:34:08.141Z,76.81
2023-05-04T02:36:42.376Z,77.88
2023-05-04T02:39:10.234Z,77.25
2023-05-04T02:41:38.102Z,77.54
2023-05-04T02:44:06.319Z,77.71
2023-05-04T02:46:35.588Z,78.48
2023-05-04T02:49:03.388Z,78.66
2023-05-04T02:51:31.260Z,78.48
2023-05-04T02:53:59.098Z,77.89
2023-05-04T02:56:26.880Z,77.64
2023-05-04T02:58:54.686Z,78.21
2023-05-04T03:01:22.517Z,81.65
2023-05-04T03:03:51.807Z,83.00
2023-05-04T03:06:19.609Z,81.66
2023-05-04T03:08:47.464Z,80.77
2023-05-04T03:11:15.342Z,78.94
2023-05-04T03:13:43.378Z,77.90
2023-05-04T03:16:12.232Z,77.33
2023-05-04T03:18:40.078Z,78.41
2023-05-04T03:21:09.341Z,77.47
2023-05-04T03:23:37.839Z,77.32
2023-05-04T03:26:05.944Z,77.91
2023-05-04T03:28:34.025Z,80.43
2023-05-04T03:31:01.921Z,80.64
2023-05-04T03:33:30.780Z,80.48
2023-05-04T03:35:58.651Z,79.69
2023-05-04T03:38:27.898Z,81.16
2023-05-04T03:40:56.428Z,81.78
2023-05-04T03:43:24.604Z,81.11
2023-05-04T03:45:53.713Z,81.71
2023-05-04T03:48:21.499Z,81.60
2023-05-04T03:50:49.517Z,80.43
2023-05-04T03:53:17.377Z,79.42
2023-05-04T03:55:46.539Z,81.36
2023-05-04T03:58:14.393Z,84.02
2023-05-04T04:00:42.572Z,83.19
2023-05-04T04:03:15.727Z,82.80
2023-05-04T04:05:43.782Z,81.37
2023-05-04T04:08:12.576Z,81.65
2023-05-04T04:10:40.853Z,80.08
2023-05-04T04:13:10.207Z,81.07
2023-05-04T04:15:38.087Z,81.27
2023-05-04T04:18:06.005Z,82.20
2023-05-04T04:20:33.976Z,81.71
2023-05-04T04:23:01.823Z,81.33
2023-05-04T04:25:29.626Z,79.61
2023-05-04T04:27:57.694Z,79.28
2023-05-04T04:30:27.125Z,79.28
2023-05-04T04:32:57.549Z,77.19
2023-05-04T04:35:25.437Z,76.27
2023-05-04T04:37:53.265Z,76.75
2023-05-04T04:40:22.476Z,77.33
2023-05-04T04:42:50.599Z,77.36
2023-05-04T04:45:18.876Z,78.00
2023-05-04T04:47:50.117Z,79.70
2023-05-04T04:50:18.226Z,78.90
2023-05-04T04:52:46.377Z,76.82
2023-05-04T04:55:15.565Z,76.19
2023-05-04T04:57:43.549Z,76.49
2023-05-04T05:00:14.102Z,76.93
2023-05-04T05:02:42.435Z,78.96
2023-05-04T05:05:12.901Z,81.32
2023-05-04T05:07:42.988Z,81.53
2023-05-04T05:10:12.498Z,81.47
2023-05-04T05:12:40.471Z,80.31
2023-05-04T05:15:09.362Z,80.06
2023-05-04T05:17:38.101Z,78.75
2023-05-04T05:20:11.230Z,77.36
2023-05-04T05:22:40.460Z,76.97
2023-05-04T05:25:09.260Z,79.05
2023-05-04T05:27:37.669Z,81.67
2023-05-04T05:30:07.137Z,81.41
2023-05-04T05:32:35.214Z,81.21
2023-05-04T05:35:03.088Z,80.14
2023-05-04T05:37:31.483Z,79.87
2023-05-04T05:40:00.777Z,79.11
2023-05-04T05:42:30.195Z,77.92
2023-05-04T05:44:57.968Z,78.78
2023-05-04T05:47:25.787Z,80.36
2023-05-04T05:49:54.368Z,79.81
2023-05-04T05:52:22.117Z,81.08
2023-05-04T05:54:49.977Z,80.43
2023-05-04T05:57:20.673Z,79.17
2023-05-04T05:59:48.763Z,76.86
2023-05-04T06:02:16.483Z,76.55
2023-05-04T06:04:45.420Z,75.54
2023-05-04T06:07:14.535Z,74.33
2023-05-04T06:09:42.369Z,73.42
2023-05-04T06:12:15.041Z,75.14
2023-05-04T06:14:44.250Z,73.82
2023-05-04T06:17:12.078Z,72.77
2023-05-04T06:19:39.933Z,71.72
2023-05-04T06:22:08.417Z,73.32
2023-05-04T06:24:36.152Z,71.93
2023-05-04T06:27:04.344Z,71.35
2023-05-04T06:29:32.206Z,70.91
2023-05-04T06:32:03.548Z,71.53
2023-05-04T06:34:31.358Z,71.53
2023-05-04T06:37:01.402Z,70.50
2023-05-04T06:39:29.164Z,71.03
2023-05-04T06:41:57.092Z,71.85
2023-05-04T06:44:29.584Z,71.70
2023-05-04T06:46:57.325Z,71.82
2023-05-04T06:49:26.485Z,71.32
2023-05-04T06:51:54.579Z,71.83
2023-05-04T06:54:22.382Z,70.94
2023-05-04T06:56:50.734Z,71.28
2023-05-04T06:59:20.363Z,69.70
2023-05-04T07:01:48.291Z,68.61
2023-05-04T07:04:17.209Z,68.70
2023-05-04T07:06:46.616Z,66.64
2023-05-04T07:09:14.395Z,67.01
2023-05-04T07:11:42.217Z,64.60
2023-05-04T07:14:10.568Z,65.56
2023-05-04T07:16:38.723Z,62.54
2023-05-04T07:19:06.961Z,63.22
2023-05-04T07:21:34.754Z,63.25
2023-05-04T07:24:04.429Z,62.49
2023-05-04T07:26:32.178Z,61.56
2023-05-04T07:29:00.129Z,60.22
2023-05-04T07:31:30.199Z,59.62
2023-05-04T07:33:58.500Z,59.58
2023-05-04T07:36:27.776Z,60.57
2023-05-04T07:38:55.637Z,59.16
2023-05-04T07:41:24.812Z,59.83
2023-05-04T07:43:52.713Z,55.84
2023-05-04T07:46:20.620Z,55.51
2023-05-04T07:48:49.288Z,55.46
2023-05-04T07:51:17.262Z,54.27
2023-05-04T07:53:45.169Z,53.98
2023-05-04T07:56:13.894Z,52.87
2023-05-04T07:58:43.154Z,51.47
2023-05-04T08:01:11.034Z,51.07
2023-05-04T08:03:38.825Z,50.66
2023-05-04T08:06:08.749Z,50.75
2023-05-04T08:08:36.655Z,49.72
2023-05-04T08:11:19.390Z,50.37
2023-05-04T08:13:50.703Z,47.83
2023-05-04T08:16:18.581Z,47.50
2023-05-04T08:18:46.480Z,45.86
2023-05-04T08:21:14.650Z,45.04
2023-05-04T08:23:42.571Z,47.12
2023-05-04T08:26:10.757Z,47.36
2023-05-04T08:28:41.684Z,45.85
2023-05-04T08:31:11.017Z,45.58
2023-05-04T08:33:41.417Z,47.57
2023-05-04T08:36:09.949Z,46.69
2023-05-04T08:38:37.918Z,46.12
2023-05-04T08:41:06.275Z,45.99
2023-05-04T08:43:36.297Z,44.69
2023-05-04T08:46:05.197Z,45.23
2023-05-04T08:48:35.109Z,43.83
2023-05-04T08:51:04.444Z,43.77
2023-05-04T08:53:33.707Z,42.50
2023-05-04T08:56:04.656Z,41.28
2023-05-04T08:58:37.674Z,44.00
2023-05-04T09:01:07.776Z,43.77
2023-05-04T09:03:40.534Z,41.08
2023-05-04T09:06:09.435Z,41.78
2023-05-04T09:08:37.360Z,41.96
2023-05-04T09:11:05.347Z,40.78
2023-05-04T09:13:33.992Z,41.12
2023-05-04T09:16:03.825Z,40.65
2023-05-04T09:18:41.118Z,40.15
2023-05-04T09:21:09.444Z,39.44
2023-05-04T09:23:47.702Z,38.22
2023-05-04T09:26:15.690Z,40.15
2023-05-04T09:28:43.762Z,36.92
2023-05-04T09:31:12.196Z,37.74
2023-05-04T09:33:41.625Z,37.56
2023-05-04T09:36:16.481Z,37.98
2023-05-04T09:38:44.601Z,39.01
2023-05-04T09:41:12.637Z,36.35
2023-05-04T09:43:41.778Z,36.84
2023-05-04T09:46:18.070Z,35.18
2023-05-04T09:48:54.164Z,35.63
2023-05-04T09:51:26.557Z,34.39
2023-05-04T09:53:54.861Z,35.94
2023-05-04T09:56:33.650Z,37.35
2023-05-04T09:59:01.504Z,36.20
2023-05-04T10:01:30.451Z,36.29
2023-05-04T10:04:02.968Z,36.46
2023-05-04T10:06:31.352Z,36.20
2023-05-04T10:09:00.531Z,35.49
2023-05-04T10:11:31.677Z,36.03
2023-05-04T10:13:59.542Z,35.69
2023-05-04T10:16:38.027Z,36.74
2023-05-04T10:19:33.492Z,37.41
2023-05-04T10:22:14.738Z,34.57
2023-05-04T10:25:22.483Z,34.80
2023-05-04T10:28:02.288Z,34.00
2023-05-04T10:30:30.817Z,35.08
2023-05-04T10:33:00.388Z,33.70
2023-05-04T10:35:29.732Z,32.59
2023-05-04T10:37:58.104Z,32.62
2023-05-04T10:40:41.346Z,32.07
2023-05-04T10:43:11.320Z,32.66
2023-05-04T10:45:39.746Z,32.60
2023-05-04T10:48:08.398Z,32.55
2023-05-04T10:50:44.746Z,32.96
2023-05-04T10:53:13.048Z,33.64
2023-05-04T10:55:42.587Z,34.36
2023-05-04T10:58:14.717Z,31.98
2023-05-04T11:00:47.399Z,32.54
2023-05-04T11:03:15.813Z,32.20
2023-05-04T11:05:46.423Z,31.15
2023-05-04T11:08:21.669Z,31.64
2023-05-04T11:10:50.967Z,32.51
2023-05-04T11:13:19.325Z,31.14
2023-05-04T11:15:48.364Z,30.56
2023-05-04T11:18:27.465Z,31.25
2023-05-04T11:20:59.852Z,30.21
2023-05-04T11:23:28.287Z,30.39
2023-05-04T11:25:56.404Z,30.39
2023-05-04T11:28:33.103Z,29.95
2023-05-04T11:31:01.033Z,31.20
2023-05-04T11:33:30.320Z,31.40
2023-05-04T11:36:05.676Z,31.19
2023-05-04T11:38:33.602Z,30.82
2023-05-04T11:41:02.595Z,31.69
2023-05-04T11:43:31.664Z,30.93
2023-05-04T11:46:01.389Z,31.72
2023-05-04T11:48:30.063Z,30.45
2023-05-04T11:50:58.284Z,30.57
2023-05-04T11:53:28.934Z,30.00
2023-05-04T11:56:03.294Z,31.58
2023-05-04T11:58:31.120Z,30.31
2023-05-04T12:00:59.891Z,29.73
2023-05-04T12:03:39.865Z,29.67
2023-05-04T12:06:16.412Z,29.72
2023-05-04T12:08:45.651Z,29.97
2023-05-04T12:11:14.609Z,29.35
2023-05-04T12:13:43.490Z,28.23
2023-05-04T12:16:12.753Z,29.51
2023-05-04T12:18:41.489Z,29.64
2023-05-04T12:21:10.924Z,31.79
2023-05-04T12:23:39.306Z,30.77
2023-05-04T12:26:08.828Z,31.90
2023-05-04T12:28:37.237Z,32.14
2023-05-04T12:31:07.852Z,30.67
2023-05-04T12:33:36.393Z,30.76
2023-05-04T12:36:05.910Z,30.33
2023-05-04T12:38:34.458Z,28.92
2023-05-04T12:41:04.297Z,28.57
2023-05-04T12:43:33.763Z,28.94
2023-05-04T12:46:01.566Z,30.75
2023-05-04T12:48:31.932Z,30.25
2023-05-04T12:51:00.510Z,30.78
2023-05-04T12:53:30.004Z,30.11
2023-05-04T12:55:58.123Z,29.73
2023-05-04T12:58:25.946Z,31.08
2023-05-04T13:00:56.045Z,30.79
2023-05-04T13:03:23.950Z,32.39
2023-05-04T13:05:51.987Z,31.10
2023-05-04T13:08:19.975Z,30.39
2023-05-04T13:10:48.108Z,30.18
2023-05-04T13:13:18.062Z,29.07
2023-05-04T13:15:46.290Z,30.24
2023-05-04T13:18:15.365Z,30.07
2023-05-04T13:20:45.135Z,29.87
2023-05-04T13:23:13.942Z,29.03
2023-05-04T13:25:42.182Z,29.66
2023-05-04T13:28:09.957Z,31.47
2023-05-04T13:30:37.800Z,29.91
2023-05-04T13:33:16.699Z,31.40
2023-05-04T13:35:50.741Z,31.13
2023-05-04T13:38:18.931Z,30.57
2023-05-04T13:40:46.949Z,31.09
2023-05-04T13:43:19.968Z,30.91
2023-05-04T13:45:49.328Z,31.12
2023-05-04T13:48:19.287Z,31.25
2023-05-04T13:50:47.134Z,30.60
2023-05-04T13:53:16.502Z,30.81
2023-05-04T13:55:45.268Z,31.79
2023-05-04T13:58:13.135Z,31.50
2023-05-04T14:00:41.043Z,32.28
2023-05-04T14:03:09.004Z,32.33
2023-05-04T14:05:36.915Z,32.95
2023-05-04T14:08:05.147Z,32.78
2023-05-04T14:10:36.654Z,33.87
2023-05-04T14:13:05.618Z,33.47
2023-05-04T14:15:36.540Z,33.24
2023-05-04T14:18:04.561Z,34.87
2023-05-04T14:20:32.983Z,33.46
2023-05-04T14:23:00.906Z,33.21
2023-05-04T14:25:28.734Z,32.02
2023-05-04T14:27:57.953Z,32.00
2023-05-04T14:30:26.580Z,31.66
2023-05-04T14:32:56.131Z,32.82
2023-05-04T14:35:24.090Z,33.20
2023-05-04T14:37:51.931Z,33.87
2023-05-04T14:40:19.822Z,32.91
2023-05-04T14:42:47.871Z,33.56
2023-05-04T14:45:17.328Z,33.39
2023-05-04T14:47:45.502Z,33.52
2023-05-04T14:50:13.741Z,32.82
2023-05-04T14:52:41.618Z,31.19
2023-05-04T14:55:10.343Z,32.92
2023-05-04T14:57:38.143Z,33.26
2023-05-04T15:00:08.880Z,34.47
2023-05-04T15:02:39.373Z,34.82
2023-05-04T15:05:09.814Z,34.34
2023-05-04T15:07:37.627Z,34.81
2023-05-04T15:10:07.524Z,35.61
2023-05-04T15:12:36.114Z,34.66
2023-05-04T15:15:04.772Z,34.90
2023-05-04T15:17:35.207Z,34.60
2023-05-04T15:20:08.310Z,34.08
2023-05-04T15:22:36.601Z,33.92
2023-05-04T15:25:04.617Z,34.56
2023-05-04T15:27:32.549Z,34.87
2023-05-04T15:30:00.468Z,35.22
2023-05-04T15:32:28.483Z,34.62
2023-05-04T15:35:04.662Z,35.40
2023-05-04T15:37:35.580Z,35.16
2023-05-04T15:40:04.724Z,34.93
2023-05-04T15:42:32.927Z,35.01
2023-05-04T15:45:00.726Z,34.92
2023-05-04T15:47:28.591Z,35.50
2023-05-04T15:49:56.410Z,34.81
2023-05-04T15:52:24.786Z,35.23
2023-05-04T15:54:53.897Z,34.68
2023-05-04T15:57:21.662Z,34.67
2023-05-04T15:59:49.950Z,34.71
2023-05-04T16:02:17.754Z,35.05
2023-05-04T16:04:45.617Z,34.53
2023-05-04T16:07:13.578Z,34.45
2023-05-04T16:09:41.351Z,34.35
2023-05-04T16:12:10.811Z,33.94
2023-05-04T16:14:38.623Z,33.67
2023-05-04T16:17:07.447Z,34.36
2023-05-04T16:19:35.421Z,34.86
2023-05-04T16:22:03.370Z,36.04
2023-05-04T16:24:31.426Z,35.27
2023-05-04T16:27:00.175Z,37.12
2023-05-04T16:29:29.291Z,35.69
2023-05-04T16:31:57.080Z,35.75
2023-05-04T16:34:24.794Z,35.67
2023-05-04T16:36:54.568Z,35.66
2023-05-04T16:39:22.351Z,34.76
2023-05-04T16:41:52.506Z,34.62
2023-05-04T16:44:20.443Z,35.39
2023-05-04T16:46:51.113Z,35.19
2023-05-04T16:49:19.008Z,35.41
2023-05-04T16:51:46.873Z,35.49
2023-05-04T16:54:15.189Z,35.03
2023-05-04T16:56:43.102Z,34.39
2023-05-04T16:59:11.391Z,35.07
2023-05-04T17:01:39.374Z,35.44
2023-05-04T17:04:09.178Z,35.43
2023-05-04T17:06:37.181Z,35.57
2023-05-04T17:09:05.320Z,35.92
2023-05-04T17:11:33.408Z,36.01
2023-05-04T17:14:01.441Z,35.92
2023-05-04T17:16:29.267Z,37.31
2023-05-04T17:18:57.204Z,36.36
2023-05-04T17:21:26.448Z,35.83
2023-05-04T17:23:54.201Z,36.82
2023-05-04T17:26:21.928Z,36.66
2023-05-04T17:28:49.813Z,37.00
2023-05-04T17:31:17.653Z,36.79
2023-05-04T17:33:46.261Z,37.07
2023-05-04T17:36:14.088Z,38.31
2023-05-04T17:38:43.219Z,37.48
2023-05-04T17:41:11.115Z,37.63
2023-05-04T17:43:39.173Z,37.82
2023-05-04T17:46:07.049Z,38.42
2023-05-04T17:48:36.342Z,38.29
2023-05-04T17:51:08.341Z,38.91
2023-05-04T17:53:36.673Z,38.47
2023-05-04T17:56:06.136Z,38.68
2023-05-04T17:58:34.117Z,39.32
2023-05-04T18:01:04.342Z,39.00
2023-05-04T18:03:32.561Z,39.47
2023-05-04T18:06:00.661Z,39.60
2023-05-04T18:08:28.434Z,39.67
2023-05-04T18:10:56.335Z,39.75
2023-05-04T18:13:25.683Z,40.02
2023-05-04T18:15:54.481Z,40.03
2023-05-04T18:18:22.322Z,40.44
2023-05-04T18:20:50.170Z,40.57
2023-05-04T18:23:17.919Z,40.91
2023-05-04T18:25:45.765Z,40.89
2023-05-04T18:28:13.720Z,40.78
2023-05-04T18:30:42.915Z,40.95
2023-05-04T18:33:10.706Z,41.06
2023-05-04T18:35:38.620Z,41.80
2023-05-04T18:38:06.429Z,41.22
2023-05-04T18:40:34.294Z,41.61
2023-05-04T18:43:02.192Z,41.86
2023-05-04T18:45:30.017Z,42.38
2023-05-04T18:48:01.425Z,41.98
2023-05-04T18:50:32.420Z,42.32
2023-05-04T18:53:00.319Z,42.31
2023-05-04T18:55:28.087Z,43.40
2023-05-04T18:57:55.907Z,43.48
2023-05-04T19:00:23.899Z,44.63
2023-05-04T19:02:51.813Z,45.63
2023-05-04T19:05:23.258Z,45.33
2023-05-04T19:07:51.111Z,45.42
2023-05-04T19:10:19.118Z,45.78
2023-05-04T19:12:47.314Z,45.58
2023-05-04T19:15:15.229Z,45.63
2023-05-04T19:17:43.017Z,46.18
2023-05-04T19:20:11.360Z,46.26
2023-05-04T19:22:40.483Z,47.62
2023-05-04T19:25:09.549Z,46.63
2023-05-04T19:27:37.980Z,46.78
2023-05-04T19:30:07.238Z,47.44
2023-05-04T19:32:35.286Z,48.13
2023-05-04T19:35:03.288Z,47.20
2023-05-04T19:37:31.113Z,48.16
2023-05-04T19:40:00.370Z,48.16
2023-05-04T19:42:28.415Z,47.38
2023-05-04T19:44:56.300Z,47.21
2023-05-04T19:47:24.335Z,47.41
2023-05-04T19:49:52.362Z,47.38
2023-05-04T19:52:20.218Z,47.03
2023-05-04T19:54:53.674Z,47.59
2023-05-04T19:57:23.240Z,47.42
2023-05-04T19:59:51.101Z,47.64
2023-05-04T20:02:18.942Z,48.00
2023-05-04T20:04:46.722Z,46.94
2023-05-04T20:07:14.609Z,48.06
2023-05-04T20:09:42.399Z,48.05
2023-05-04T20:12:10.812Z,48.80
2023-05-04T20:14:41.159Z,48.31
2023-05-04T20:17:09.140Z,49.09
2023-05-04T20:19:37.590Z,49.41
2023-05-04T20:22:05.568Z,50.26
2023-05-04T20:24:33.419Z,50.00
2023-05-04T20:27:01.286Z,50.79
2023-05-04T20:29:29.202Z,50.58
2023-05-04T20:31:58.596Z,51.12
2023-05-04T20:34:28.986Z,51.68
2023-05-04T20:36:56.835Z,50.89
2023-05-04T20:39:24.704Z,51.13
2023-05-04T20:41:52.970Z,51.74
2023-05-04T20:44:20.772Z,51.60
2023-05-04T20:46:48.660Z,52.06
2023-05-04T20:49:20.965Z,52.41
2023-05-04T20:51:51.076Z,52.88
2023-05-04T20:54:18.891Z,53.37
2023-05-04T20:56:46.712Z,54.33
2023-05-04T20:59:14.454Z,54.41
2023-05-04T21:01:42.354Z,54.73
2023-05-04T21:04:10.531Z,56.12
2023-05-04T21:06:39.711Z,55.93
2023-05-04T21:09:07.854Z,55.91
2023-05-04T21:11:35.716Z,55.60
2023-05-04T21:14:03.520Z,55.68
2023-05-04T21:16:31.722Z,55.74
2023-05-04T21:18:59.614Z,56.24
2023-05-04T21:21:27.431Z,56.91
2023-05-04T21:23:56.731Z,57.98
2023-05-04T21:26:26.794Z,58.09
2023-05-04T21:28:54.625Z,59.08
2023-05-04T21:31:22.331Z,57.27
2023-05-04T21:33:52.241Z,55.74
2023-05-04T21:36:20.194Z,55.48
2023-05-04T21:38:47.958Z,56.35
2023-05-04T21:41:18.054Z,55.95
2023-05-04T21:43:45.874Z,56.31
2023-05-04T21:46:14.462Z,56.69
2023-05-04T21:48:42.489Z,56.67
2023-05-04T21:51:10.393Z,57.41
2023-05-04T21:53:40.340Z,58.83
2023-05-04T21:56:09.966Z,58.25
2023-05-04T21:58:40.326Z,58.89
2023-05-04T22:01:08.692Z,59.22
2023-05-04T22:03:36.964Z,59.13
2023-05-04T22:06:05.449Z,59.16
2023-05-04T22:08:33.226Z,58.59
2023-05-04T22:11:01.110Z,59.31
2023-05-04T22:13:29.074Z,59.37
2023-05-04T22:15:58.288Z,60.85
2023-05-04T22:18:26.149Z,60.53
2023-05-04T22:20:54.073Z,60.67
2023-05-04T22:23:21.852Z,58.79
2023-05-04T22:25:49.744Z,59.33
2023-05-04T22:28:18.003Z,60.13
2023-05-04T22:30:45.941Z,59.35
2023-05-04T22:33:15.533Z,59.92
2023-05-04T22:35:43.842Z,60.33
2023-05-04T22:38:11.944Z,60.06
2023-05-04T22:40:40.554Z,60.25
2023-05-04T22:43:08.584Z,60.39
2023-05-04T22:45:36.731Z,60.42
2023-05-04T22:48:04.834Z,60.73
2023-05-04T22:50:34.302Z,61.12
2023-05-04T22:53:02.227Z,61.06
2023-05-04T22:55:30.296Z,61.67
2023-05-04T22:57:58.113Z,62.24
2023-05-04T23:00:26.078Z,62.15
2023-05-04T23:02:54.054Z,61.74
2023-05-04T23:05:24.116Z,62.37
2023-05-04T23:07:53.384Z,62.61
2023-05-04T23:10:21.672Z,62.35
2023-05-04T23:12:51.550Z,62.92
2023-05-04T23:15:19.342Z,62.62
2023-05-04T23:17:47.435Z,62.31
2023-05-04T23:20:16.704Z,62.31
2023-05-04T23:22:44.499Z,62.02
2023-05-04T23:25:13.618Z,61.58
2023-05-04T23:27:41.730Z,61.61
2023-05-04T23:30:10.551Z,61.20
2023-05-04T23:32:38.382Z,62.20
2023-05-04T23:35:07.700Z,62.58
2023-05-04T23:37:35.471Z,63.37
2023-05-04T23:40:03.471Z,65.12
2023-05-04T23:42:32.609Z,65.12
2023-05-04T23:45:00.365Z,63.85
2023-05-04T23:47:28.209Z,63.22
2023-05-04T23:49:58.544Z,64.11
2023-05-04T23:52:26.457Z,66.11
2023-05-04T23:54:54.783Z,66.03
2023-05-04T23:57:22.640Z,65.48
2023-05-04T23:59:53.363Z,65.41
